createdAt,value
2023-02-04T00:00:17.451Z,101747.13
2023-02-04T00:02:43.830Z,101748.59
2023-02-04T00:05:10.189Z,101760.13
2023-02-04T00:07:36.528Z,101771.00
2023-02-04T00:10:03.051Z,101775.38
2023-02-04T00:12:29.474Z,101787.66
2023-02-04T00:14:55.801Z,101796.44
2023-02-04T00:17:22.153Z,101806.44
2023-02-04T00:19:48.470Z,101818.69
2023-02-04T00:22:14.878Z,101818.69
2023-02-04T00:24:42.993Z,101827.22
2023-02-04T00:27:09.310Z,101838.72
2023-02-04T00:29:36.027Z,101843.00
2023-02-04T00:32:02.565Z,101848.63
2023-02-04T00:34:28.949Z,101856.53
2023-02-04T00:36:55.281Z,101865.16
2023-02-04T00:39:21.617Z,101862.28
2023-02-04T00:41:47.951Z,101881.69
2023-02-04T00:44:14.348Z,101876.53
2023-02-04T00:46:43.616Z,101901.72
2023-02-04T00:49:12.877Z,101921.13
2023-02-04T00:51:39.818Z,101943.38
2023-02-04T00:54:06.527Z,101939.63
2023-02-04T00:56:33.274Z,101951.41
2023-02-04T00:58:59.620Z,101960.91
2023-02-04T01:01:25.971Z,101969.81
2023-02-04T01:03:52.337Z,101971.94
2023-02-04T01:06:18.696Z,101985.69
2023-02-04T01:08:45.082Z,101997.97
2023-02-04T01:11:11.449Z,102001.47
2023-02-04T01:13:37.770Z,102014.34
2023-02-04T01:16:04.135Z,102023.75
2023-02-04T01:18:30.483Z,102035.91
2023-02-04T01:20:56.978Z,102043.78
2023-02-04T01:23:23.310Z,102038.03
2023-02-04T01:25:49.630Z,102066.06
2023-02-04T01:28:16.022Z,102075.31
2023-02-04T01:30:42.466Z,102064.44
2023-02-04T01:33:08.851Z,102078.81
2023-02-04T01:35:35.188Z,102075.81
2023-02-04T01:38:01.540Z,102081.56
2023-02-04T01:40:29.348Z,102086.56
2023-02-04T01:42:55.898Z,102102.34
2023-02-04T01:45:23.620Z,102116.75
2023-02-04T01:47:49.967Z,102131.16
2023-02-04T01:50:16.488Z,102148.41
2023-02-04T01:52:42.900Z,102146.28
2023-02-04T01:55:13.549Z,102152.78
2023-02-04T01:57:39.938Z,102162.19
2023-02-04T02:00:07.030Z,102167.31
2023-02-04T02:02:42.241Z,102174.47
2023-02-04T02:05:13.153Z,102185.97
2023-02-04T02:07:39.496Z,102180.22
2023-02-04T02:10:05.903Z,102190.22
2023-02-04T02:12:32.257Z,102198.72
2023-02-04T02:14:58.764Z,102194.47
2023-02-04T02:17:25.588Z,102210.25
2023-02-04T02:19:51.941Z,102211.63
2023-02-04T02:22:21.692Z,102215.84
2023-02-04T02:24:48.014Z,102222.25
2023-02-04T02:27:14.342Z,102233.00
2023-02-04T02:29:40.918Z,102235.25
2023-02-04T02:32:07.562Z,102236.00
2023-02-04T02:34:33.890Z,102239.53
2023-02-04T02:37:02.026Z,102248.31
2023-02-04T02:39:28.343Z,102256.31
2023-02-04T02:41:55.196Z,102260.56
2023-02-04T02:44:21.666Z,102275.09
2023-02-04T02:46:48.132Z,102272.09
2023-02-04T02:49:15.952Z,102283.59
2023-02-04T02:51:42.483Z,102288.59
2023-02-04T02:54:13.521Z,102294.38
2023-02-04T02:56:40.069Z,102293.59
2023-02-04T02:59:13.562Z,102302.09
2023-02-04T03:01:39.977Z,102311.34
2023-02-04T03:24:13.254Z,102378.47
2023-02-04T03:26:39.737Z,102379.81
2023-02-04T03:29:06.611Z,102405.72
2023-02-04T03:31:33.096Z,102399.84
2023-02-04T03:33:59.467Z,102416.50
2023-02-04T03:36:25.793Z,102427.25
2023-02-04T03:38:54.827Z,102432.88
2023-02-04T03:41:21.134Z,102445.00
2023-02-04T03:43:47.448Z,102450.75
2023-02-04T03:46:13.803Z,102461.50
2023-02-04T03:48:40.175Z,102460.91
2023-02-04T03:51:06.519Z,102476.06
2023-02-04T03:53:32.844Z,102477.59
2023-02-04T03:55:59.187Z,102482.72
2023-02-04T03:58:25.532Z,102484.97
2023-02-04T04:00:51.884Z,102490.75
2023-02-04T04:03:18.229Z,102492.25
2023-02-04T04:05:44.563Z,102493.78
2023-02-04T04:08:10.891Z,102499.53
2023-02-04T04:10:37.226Z,102511.19
2023-02-04T04:13:03.563Z,102519.06
2023-02-04T04:15:30.666Z,102521.31
2023-02-04T04:17:56.971Z,102538.59
2023-02-04T04:20:28.037Z,102535.72
2023-02-04T04:22:54.349Z,102542.88
2023-02-04T04:25:20.889Z,102548.63
2023-02-04T04:27:47.226Z,102554.38
2023-02-04T04:30:13.576Z,102565.91
2023-02-04T04:32:42.915Z,102570.88
2023-02-04T04:35:09.242Z,102575.88
2023-02-04T04:37:35.568Z,102582.88
2023-02-04T04:40:02.701Z,102594.53
2023-02-04T04:42:29.023Z,102597.41
2023-02-04T04:44:55.353Z,102610.28
2023-02-04T04:47:21.738Z,102610.28
2023-02-04T04:49:48.071Z,102611.66
2023-02-04T04:52:14.403Z,102608.78
2023-02-04T04:54:40.720Z,102621.66
2023-02-04T04:57:07.093Z,102618.78
2023-02-04T04:59:33.421Z,102629.53
2023-02-04T05:01:59.740Z,102634.69
2023-02-04T05:04:26.101Z,102651.22
2023-02-04T05:06:52.445Z,102657.88
2023-02-04T05:09:18.797Z,102660.75
2023-02-04T05:11:45.115Z,102665.78
2023-02-04T05:14:11.459Z,102673.78
2023-02-04T05:16:37.857Z,102673.19
2023-02-04T05:19:04.231Z,102679.69
2023-02-04T05:21:30.588Z,102684.84
2023-02-04T05:23:56.916Z,102688.47
2023-02-04T05:26:30.153Z,102686.97
2023-02-04T05:28:57.431Z,102698.50
2023-02-04T05:31:23.893Z,102696.97
2023-02-04T05:33:50.309Z,102707.00
2023-02-04T05:36:17.747Z,102715.63
2023-02-04T05:38:44.089Z,102718.50
2023-02-04T05:41:10.418Z,102725.63
2023-02-04T05:43:36.747Z,102730.03
2023-02-04T05:46:03.123Z,102734.25
2023-02-04T05:48:29.509Z,102750.78
2023-02-04T05:50:55.834Z,102754.41
2023-02-04T05:53:22.155Z,102755.78
2023-02-04T05:55:48.499Z,102760.78
2023-02-04T05:58:14.851Z,102764.25
2023-02-04T06:00:41.183Z,102770.03
2023-02-04T06:03:07.571Z,102778.66
2023-02-04T06:05:33.953Z,102787.31
2023-02-04T06:08:00.299Z,102793.22
2023-02-04T06:10:26.652Z,102807.59
2023-02-04T06:12:52.993Z,102807.59
2023-02-04T06:15:20.501Z,102814.88
2023-02-04T06:17:46.814Z,102819.28
2023-02-04T06:20:13.542Z,102816.41
2023-02-04T06:22:39.869Z,102817.16
2023-02-04T06:25:06.301Z,102829.44
2023-02-04T06:27:32.669Z,102828.09
2023-02-04T06:29:59.004Z,102829.59
2023-02-04T06:32:25.328Z,102841.09
2023-02-04T06:34:51.664Z,102835.19
2023-02-04T06:37:18.076Z,102835.19
2023-02-04T06:39:44.544Z,102835.19
2023-02-04T06:42:10.905Z,102845.19
2023-02-04T06:44:37.246Z,102845.19
2023-02-04T06:47:03.583Z,102833.69
2023-02-04T06:49:29.961Z,102833.69
2023-02-04T06:51:56.297Z,102832.91
2023-02-04T06:54:22.614Z,102831.41
2023-02-04T06:56:48.984Z,102842.16
2023-02-04T06:59:15.318Z,102843.50
2023-02-04T07:01:41.683Z,102851.41
2023-02-04T07:04:08.065Z,102855.03
2023-02-04T07:06:34.382Z,102862.16
2023-02-04T07:09:00.738Z,102872.94
2023-02-04T07:11:27.076Z,102878.06
2023-02-04T07:13:53.400Z,102875.19
2023-02-04T07:16:19.749Z,102877.47
2023-02-04T07:18:46.073Z,102870.97
2023-02-04T07:21:12.406Z,102881.09
2023-02-04T07:23:38.749Z,102897.03
2023-02-04T07:26:05.175Z,102899.28
2023-02-04T07:28:31.565Z,102902.88
2023-02-04T07:30:58.042Z,102896.66
2023-02-04T07:33:24.425Z,102908.41
2023-02-04T07:35:50.769Z,102910.22
2023-02-04T07:38:17.094Z,102913.69
2023-02-04T07:40:46.328Z,102917.34
2023-02-04T07:43:13.063Z,102913.53
2023-02-04T07:45:39.586Z,102923.53
2023-02-04T07:48:05.949Z,102927.78
2023-02-04T07:50:32.597Z,102929.31
2023-02-04T07:52:59.078Z,102933.09
2023-02-04T07:55:25.404Z,102933.09
2023-02-04T07:57:51.728Z,102948.25
2023-02-04T08:00:18.091Z,102958.84
2023-02-04T08:02:44.485Z,102964.78
2023-02-04T08:05:10.895Z,102969.31
2023-02-04T08:07:37.219Z,102975.25
2023-02-04T08:10:04.537Z,102975.38
2023-02-04T08:12:30.862Z,102992.38
2023-02-04T08:14:57.195Z,102990.66
2023-02-04T08:17:23.512Z,103000.56
2023-02-04T08:19:49.853Z,103006.00
2023-02-04T08:22:16.173Z,103018.16
2023-02-04T08:24:42.556Z,103007.13
2023-02-04T08:27:08.883Z,103013.63
2023-02-04T08:29:35.225Z,103016.00
2023-02-04T08:32:01.653Z,103016.78
2023-02-04T08:34:28.013Z,103023.56
2023-02-04T08:36:54.333Z,103015.50
2023-02-04T08:39:20.724Z,103023.41
2023-02-04T08:41:49.043Z,103014.28
2023-02-04T08:44:15.463Z,103025.13
2023-02-04T08:46:41.833Z,103022.75
2023-02-04T08:49:08.196Z,103011.56
2023-02-04T08:51:34.531Z,103021.81
2023-02-04T08:54:00.890Z,103021.56
2023-02-04T08:56:27.237Z,103028.25
2023-02-04T08:58:53.563Z,103031.75
2023-02-04T09:01:20.024Z,103032.72
2023-02-04T09:03:46.359Z,103033.41
2023-02-04T09:06:12.684Z,103035.28
2023-02-04T09:08:39.038Z,103037.63
2023-02-04T09:11:05.538Z,103052.53
2023-02-04T09:13:32.633Z,103048.63
2023-02-04T09:15:59.027Z,103053.34
2023-02-04T09:18:25.966Z,103066.56
2023-02-04T09:20:52.385Z,103066.13
2023-02-04T09:23:18.757Z,103058.41
2023-02-04T09:25:45.216Z,103065.72
2023-02-04T09:28:12.477Z,103075.25
2023-02-04T09:30:39.161Z,103076.03
2023-02-04T09:33:05.502Z,103076.38
2023-02-04T09:35:31.840Z,103089.13
2023-02-04T09:37:58.262Z,103088.88
2023-02-04T09:40:24.612Z,103100.97
2023-02-04T09:42:51.019Z,103106.50
2023-02-04T09:45:17.831Z,103103.94
2023-02-04T09:47:44.143Z,103101.47
2023-02-04T09:50:14.461Z,103106.47
2023-02-04T09:52:40.779Z,103109.69
2023-02-04T09:55:13.074Z,103104.94
2023-02-04T09:57:41.105Z,103107.91
2023-02-04T10:00:14.968Z,103109.84
2023-02-04T10:02:41.317Z,103109.84
2023-02-04T10:05:09.740Z,103105.59
2023-02-04T10:07:36.055Z,103102.56
2023-02-04T10:10:02.901Z,103098.00
2023-02-04T10:12:29.488Z,103109.09
2023-02-04T10:14:55.820Z,103107.59
2023-02-04T10:17:22.232Z,103108.59
2023-02-04T10:19:48.558Z,103109.34
2023-02-04T10:22:18.603Z,103116.53
2023-02-04T10:24:44.985Z,103122.06
2023-02-04T10:27:11.749Z,103115.69
2023-02-04T10:29:38.159Z,103126.78
2023-02-04T10:32:04.488Z,103119.81
2023-02-04T10:34:34.697Z,103125.59
2023-02-04T10:37:45.243Z,103125.41
2023-02-04T10:40:27.618Z,103131.00
2023-02-04T10:42:54.009Z,103131.00
2023-02-04T10:45:27.208Z,103128.28
2023-02-04T10:47:54.324Z,103125.59
2023-02-04T10:50:21.364Z,103122.69
2023-02-04T10:52:49.555Z,103127.13
2023-02-04T10:55:19.916Z,103117.88
2023-02-04T10:57:46.885Z,103126.69
2023-02-04T11:00:20.241Z,103133.19
2023-02-04T11:02:49.250Z,103127.44
2023-02-04T11:05:16.652Z,103132.59
2023-02-04T11:07:43.146Z,103134.72
2023-02-04T11:10:12.850Z,103137.03
2023-02-04T11:12:43.211Z,103140.47
2023-02-04T11:15:28.551Z,103142.00
2023-02-04T11:18:04.550Z,103146.25
2023-02-04T11:20:31.650Z,103152.00
2023-02-04T11:22:58.193Z,103147.75
2023-02-04T11:25:31.607Z,103148.66
2023-02-04T11:27:58.134Z,103149.47
2023-02-04T11:30:24.484Z,103152.34
2023-02-04T11:33:17.205Z,103148.84
2023-02-04T11:35:43.579Z,103154.59
2023-02-04T11:38:23.144Z,103162.66
2023-02-04T11:40:54.998Z,103159.94
2023-02-04T11:43:22.062Z,103164.94
2023-02-04T11:45:48.434Z,103158.41
2023-02-04T11:48:18.509Z,103158.41
2023-02-04T11:50:54.810Z,103164.16
2023-02-04T11:53:21.136Z,103171.44
2023-02-04T11:55:47.892Z,103161.28
2023-02-04T11:58:14.916Z,103169.78
2023-02-04T12:00:42.449Z,103170.69
2023-02-04T12:03:29.664Z,103172.25
2023-02-04T12:05:56.132Z,103176.03
2023-02-04T12:08:22.384Z,103176.81
2023-02-04T12:11:02.183Z,103180.47
2023-02-04T12:13:30.567Z,103170.44
2023-02-04T12:16:01.077Z,103176.03
2023-02-04T12:18:30.142Z,103172.56
2023-02-04T12:20:56.557Z,103173.34
2023-02-04T12:23:23.325Z,103166.66
2023-02-04T12:25:49.678Z,103161.06
2023-02-04T12:28:16.024Z,103171.81
2023-02-04T12:30:42.393Z,103169.69
2023-02-04T12:33:08.736Z,103184.84
2023-02-04T12:35:35.081Z,103184.84
2023-02-04T12:38:01.421Z,103181.38
2023-02-04T12:40:27.764Z,103185.78
2023-02-04T12:42:54.101Z,103193.81
2023-02-04T12:45:20.450Z,103189.56
2023-02-04T12:47:46.775Z,103193.81
2023-02-04T12:50:13.856Z,103191.69
2023-02-04T12:52:40.200Z,103191.69
2023-02-04T12:55:07.017Z,103185.19
2023-02-04T12:57:33.457Z,103196.72
2023-02-04T13:00:01.362Z,103205.94
2023-02-04T13:02:27.899Z,103210.94
2023-02-04T13:04:54.230Z,103208.06
2023-02-04T13:07:21.557Z,103205.94
2023-02-04T13:09:48.123Z,103203.84
2023-02-04T13:12:14.601Z,103219.75
2023-02-04T13:14:41.350Z,103208.97
2023-02-04T13:17:07.687Z,103219.91
2023-02-04T13:19:34.012Z,103211.28
2023-02-04T13:22:00.348Z,103211.28
2023-02-04T13:24:26.702Z,103213.41
2023-02-04T13:26:53.056Z,103207.63
2023-02-04T13:29:19.655Z,103215.50
2023-02-04T13:31:46.030Z,103214.72
2023-02-04T13:34:12.365Z,103217.63
2023-02-04T13:36:38.866Z,103218.38
2023-02-04T13:39:05.205Z,103218.38
2023-02-04T13:41:31.553Z,103218.53
2023-02-04T13:43:58.445Z,103220.09
2023-02-04T13:46:24.798Z,103221.59
2023-02-04T13:48:51.145Z,103221.59
2023-02-04T13:51:17.487Z,103218.88
2023-02-04T13:53:43.808Z,103219.63
2023-02-04T13:56:10.158Z,103217.38
2023-02-04T13:58:36.485Z,103220.25
2023-02-04T14:01:02.912Z,103224.63
2023-02-04T14:03:29.308Z,103223.13
2023-02-04T14:05:55.698Z,103224.47
2023-02-04T14:08:22.166Z,103225.22
2023-02-04T14:10:48.505Z,103228.88
2023-02-04T14:13:14.829Z,103228.88
2023-02-04T14:15:44.065Z,103228.09
2023-02-04T14:18:10.387Z,103240.41
2023-02-04T14:20:36.721Z,103241.91
2023-02-04T14:23:03.759Z,103244.97
2023-02-04T14:25:30.114Z,103250.72
2023-02-04T14:27:59.831Z,103255.13
2023-02-04T14:30:27.236Z,103251.47
2023-02-04T14:32:53.719Z,103262.25
2023-02-04T14:35:20.062Z,103263.75
2023-02-04T14:37:46.399Z,103263.75
2023-02-04T14:40:12.836Z,103263.00
2023-02-04T14:42:39.172Z,103270.88
2023-02-04T14:45:05.852Z,103269.50
2023-02-04T14:47:32.492Z,103265.88
2023-02-04T14:49:58.868Z,103271.06
2023-02-04T14:52:25.204Z,103273.94
2023-02-04T14:54:51.530Z,103275.44
2023-02-04T14:57:17.872Z,103266.81
2023-02-04T14:59:44.194Z,103269.69
2023-02-04T15:02:10.733Z,103277.00
2023-02-04T15:04:37.139Z,103278.31
2023-02-04T15:07:03.465Z,103272.56
2023-02-04T15:09:29.785Z,103271.06
2023-02-04T15:11:56.144Z,103269.50
2023-02-04T15:14:22.530Z,103275.28
2023-02-04T15:16:49.226Z,103278.16
2023-02-04T15:19:16.029Z,103282.56
2023-02-04T15:21:42.628Z,103288.34
2023-02-04T15:24:08.976Z,103294.84
2023-02-04T15:26:35.316Z,103293.34
2023-02-04T15:29:01.783Z,103292.56
2023-02-04T15:31:28.213Z,103292.56
2023-02-04T15:33:54.626Z,103293.34
2023-02-04T15:36:21.176Z,103293.34
2023-02-04T15:38:47.493Z,103284.09
2023-02-04T15:41:13.869Z,103295.59
2023-02-04T15:43:40.236Z,103302.91
2023-02-04T15:46:06.710Z,103308.66
2023-02-04T15:48:33.082Z,103295.59
2023-02-04T15:50:59.413Z,103305.03
2023-02-04T15:53:25.739Z,103305.03
2023-02-04T15:55:52.078Z,103310.63
2023-02-04T15:58:18.408Z,103306.94
2023-02-04T16:00:44.738Z,103299.84
2023-02-04T16:03:11.242Z,103299.84
2023-02-04T16:05:37.564Z,103304.06
2023-02-04T16:08:03.933Z,103311.03
2023-02-04T16:10:30.297Z,103310.69
2023-02-04T16:12:57.752Z,103311.03
2023-02-04T16:15:24.256Z,103325.19
2023-02-04T16:17:51.043Z,103327.13
2023-02-04T16:20:17.718Z,103320.19
2023-02-04T16:22:44.048Z,103320.00
2023-02-04T16:25:10.383Z,103317.13
2023-02-04T16:27:36.717Z,103325.78
2023-02-04T16:30:03.276Z,103322.88
2023-02-04T16:32:29.697Z,103319.84
2023-02-04T16:34:56.780Z,103322.72
2023-02-04T16:37:23.152Z,103327.13
2023-02-04T16:39:51.457Z,103321.34
2023-02-04T16:42:17.794Z,103323.66
2023-02-04T16:44:44.113Z,103327.28
2023-02-04T16:47:10.472Z,103324.41
2023-02-04T16:49:36.802Z,103330.94
2023-02-04T16:52:04.988Z,103337.22
2023-02-04T16:54:31.686Z,103330.75
2023-02-04T16:57:00.131Z,103342.16
2023-02-04T16:59:26.902Z,103331.63
2023-02-04T17:01:53.312Z,103339.22
2023-02-04T17:04:19.704Z,103347.03
2023-02-04T17:06:46.096Z,103336.44
2023-02-04T17:09:12.430Z,103346.78
2023-02-04T17:11:38.774Z,103348.13
2023-02-04T17:14:06.167Z,103342.72
2023-02-04T17:16:33.492Z,103350.34
2023-02-04T17:18:59.836Z,103347.63
2023-02-04T17:21:26.454Z,103351.84
2023-02-04T17:23:52.789Z,103346.09
2023-02-04T17:26:19.113Z,103351.53
2023-02-04T17:28:45.493Z,103357.09
2023-02-04T17:31:11.878Z,103360.66
2023-02-04T17:33:38.267Z,103363.38
2023-02-04T17:36:05.275Z,103356.78
2023-02-04T17:38:31.687Z,103366.19
2023-02-04T17:40:58.295Z,103377.97
2023-02-04T17:43:24.793Z,103374.91
2023-02-04T17:45:51.196Z,103366.44
2023-02-04T17:48:17.791Z,103369.94
2023-02-04T17:50:44.177Z,103375.69
2023-02-04T17:53:10.556Z,103383.72
2023-02-04T17:55:37.930Z,103382.19
2023-02-04T17:58:23.066Z,103376.84
2023-02-04T18:00:49.476Z,103373.78
2023-02-04T18:03:16.812Z,103372.28
2023-02-04T18:05:44.553Z,103371.53
2023-02-04T18:08:11.631Z,103374.41
2023-02-04T18:10:38.472Z,103377.13
2023-02-04T18:13:09.761Z,103380.16
2023-02-04T18:15:36.848Z,103380.16
2023-02-04T18:18:15.781Z,103379.16
2023-02-04T18:20:42.114Z,103383.97
2023-02-04T18:23:15.743Z,103384.31
2023-02-04T18:25:42.174Z,103384.25
2023-02-04T18:28:13.571Z,103386.09
2023-02-04T18:30:39.982Z,103382.00
2023-02-04T18:33:17.759Z,103388.13
2023-02-04T18:35:46.974Z,103381.84
2023-02-04T18:38:23.287Z,103394.91
2023-02-04T18:40:50.285Z,103392.88
2023-02-04T18:43:23.491Z,103394.06
2023-02-04T18:45:49.908Z,103409.81
2023-02-04T18:48:18.958Z,103398.28
2023-02-04T18:50:46.245Z,103402.53
2023-02-04T18:53:16.200Z,103394.66
2023-02-04T18:55:43.245Z,103392.34
2023-02-04T18:58:49.800Z,103398.28
2023-02-04T19:01:21.991Z,103392.72
2023-02-04T19:03:50.439Z,103404.22
2023-02-04T19:06:26.617Z,103406.34
2023-02-04T19:08:53.031Z,103409.22
2023-02-04T19:11:28.947Z,103412.53
2023-02-04T19:13:55.452Z,103412.53
2023-02-04T19:16:23.480Z,103420.59
2023-02-04T19:18:49.983Z,103431.94
2023-02-04T19:21:21.600Z,103430.25
2023-02-04T19:23:50.942Z,103427.94
2023-02-04T19:26:33.582Z,103429.63
2023-02-04T19:28:59.965Z,103436.00
2023-02-04T19:31:33.436Z,103445.22
2023-02-04T19:33:59.798Z,103439.41
2023-02-04T19:36:36.813Z,103443.44
2023-02-04T19:39:05.122Z,103449.28
2023-02-04T19:41:34.010Z,103445.59
2023-02-04T19:44:26.685Z,103455.84
2023-02-04T19:46:53.022Z,103454.34
2023-02-04T19:49:27.853Z,103460.28
2023-02-04T19:51:54.832Z,103461.06
2023-02-04T19:54:24.083Z,103467.41
2023-02-04T19:56:53.960Z,103472.00
2023-02-04T19:59:29.766Z,103469.09
2023-02-04T20:01:58.544Z,103469.88
2023-02-04T20:04:24.889Z,103467.91
2023-02-04T20:06:51.224Z,103460.03
2023-02-04T20:09:18.328Z,103459.88
2023-02-04T20:11:52.888Z,103461.41
2023-02-04T20:14:29.270Z,103464.28
2023-02-04T20:16:57.514Z,103460.66
2023-02-04T20:19:26.535Z,103461.97
2023-02-04T20:21:56.714Z,103465.66
2023-02-04T20:24:23.049Z,103469.28
2023-02-04T20:26:50.864Z,103462.16
2023-02-04T20:29:18.828Z,103464.88
2023-02-04T20:31:45.289Z,103474.09
2023-02-04T20:34:18.797Z,103466.06
2023-02-04T20:36:45.995Z,103477.00
2023-02-04T20:39:32.506Z,103483.50
2023-02-04T20:41:59.514Z,103489.44
2023-02-04T20:44:27.332Z,103486.38
2023-02-04T20:46:58.397Z,103488.69
2023-02-04T20:49:25.137Z,103492.91
2023-02-04T20:51:55.924Z,103488.69
2023-02-04T20:54:22.257Z,103492.50
2023-02-04T20:56:48.588Z,103486.75
2023-02-04T20:59:14.841Z,103492.50
2023-02-04T21:01:44.516Z,103481.75
2023-02-04T21:04:13.670Z,103495.56
2023-02-04T21:06:40.026Z,103484.78
2023-02-04T21:09:10.308Z,103489.81
2023-02-04T21:11:36.681Z,103486.91
2023-02-04T21:14:03.042Z,103484.44
2023-02-04T21:16:29.388Z,103490.78
2023-02-04T21:18:55.711Z,103489.44
2023-02-04T21:21:24.345Z,103495.03
2023-02-04T21:23:50.708Z,103502.13
2023-02-04T21:26:17.025Z,103493.34
2023-02-04T21:28:43.631Z,103501.81
2023-02-04T21:31:11.573Z,103497.56
2023-02-04T21:33:38.018Z,103504.84
2023-02-04T21:36:04.406Z,103505.00
2023-02-04T21:38:30.774Z,103517.91
2023-02-04T21:40:57.116Z,103522.28
2023-02-04T21:43:23.465Z,103525.03
2023-02-04T21:45:49.820Z,103524.41
2023-02-04T21:48:16.176Z,103521.34
2023-02-04T21:50:42.499Z,103527.72
2023-02-04T21:53:08.872Z,103521.03
2023-02-04T21:55:35.448Z,103516.03
2023-02-04T21:58:02.046Z,103517.53
2023-02-04T22:00:28.370Z,103512.38
2023-02-04T22:02:54.739Z,103516.03
2023-02-04T22:05:21.114Z,103514.66
2023-02-04T22:07:47.454Z,103504.84
2023-02-04T22:10:14.973Z,103510.63
2023-02-04T22:12:41.295Z,103503.31
2023-02-04T22:15:07.738Z,103499.09
2023-02-04T22:17:34.058Z,103505.25
2023-02-04T22:20:00.403Z,103505.25
2023-02-04T22:22:26.726Z,103507.38
2023-02-04T22:24:53.077Z,103498.56
2023-02-04T22:27:19.388Z,103495.09
2023-02-04T22:29:45.712Z,103502.97
2023-02-04T22:32:12.023Z,103508.72
2023-02-04T22:34:38.356Z,103508.53
2023-02-04T22:37:04.765Z,103509.16
2023-02-04T22:39:31.113Z,103502.97
2023-02-04T22:41:57.433Z,103501.44
2023-02-04T22:44:23.787Z,103500.69
2023-02-04T22:46:50.246Z,103487.81
2023-02-04T22:49:16.654Z,103491.63
2023-02-04T22:51:42.977Z,103487.81
2023-02-04T22:54:09.313Z,103500.69
2023-02-04T22:56:35.804Z,103504.16
2023-02-04T22:59:02.166Z,103490.50
2023-02-04T23:01:28.509Z,103499.91
2023-02-04T23:03:54.887Z,103496.88
2023-02-04T23:06:22.375Z,103488.06
2023-02-04T23:08:48.749Z,103488.22
2023-02-04T23:11:15.576Z,103494.13
2023-02-04T23:13:41.952Z,103482.03
2023-02-04T23:16:08.338Z,103480.69
2023-02-04T23:18:34.683Z,103482.78
2023-02-04T23:21:01.007Z,103482.78
2023-02-04T23:23:28.617Z,103487.03
2023-02-04T23:25:54.930Z,103489.91
2023-02-04T23:28:21.264Z,103488.38
2023-02-04T23:30:47.735Z,103475.34
2023-02-04T23:33:14.101Z,103472.28
2023-02-04T23:35:40.472Z,103475.75
2023-02-04T23:38:06.801Z,103493.81
2023-02-04T23:40:33.185Z,103492.25
2023-02-04T23:42:59.521Z,103499.56
2023-02-04T23:45:25.936Z,103503.78
2023-02-04T23:47:52.276Z,103494.97
2023-02-04T23:50:18.612Z,103494.97
2023-02-04T23:52:44.931Z,103496.69
2023-02-04T23:55:11.286Z,103493.81
2023-02-04T23:57:37.616Z,103480.75
